Terminal Aerodrome Forecast
Issued by NWS

Home | Current Version | Previous Version | Text Only | Print | Product List | Glossary On
Versions: 1 2 3 4 5 6 7 8 9 10 11 12 13 14 15 16 17 18 19 20 21 22 23 24 25
846
FTUS46 KLOX 241453 AAA
TAFPRB
TAF AMD
KPRB 241453Z 2415/2512 34003KT P6SM OVC020
     FM241700 29006KT P6SM BKN050
     FM242100 21018G26KT P6SM BKN050
     FM250300 28015KT P6SM BKN050
     FM250800 29007KT P6SM BKN025 OVC040=

USA.gov is the U.S. government's official web portal to all federal, state and local government web resources and services.